Time;durP1;ratioP1;P1;durP2;ratioP2;P2;SDS_P1;SDS_P2;PMS_P1;PMS_P2;Temp;Humidity;BMP_temperature;BMP_pressure;BME280_temperature;BME280_humidity;BME280_pressure;Samples;Min_cycle;Max_cycle;Signal;HPM_P1;HPM_P2
2023/04/14 00:00:17;;;;;;;14.30;11.73;;;9.70;1.00;;;;;;4916499;29;20487;-82
2023/04/14 00:02:44;;;;;;;13.50;12.10;;;9.60;1.00;;;;;;4920564;29;20475;-82
2023/04/14 00:05:11;;;;;;;13.17;11.87;;;9.70;1.00;;;;;;4920146;29;20439;-82
2023/04/14 00:07:39;;;;;;;14.43;11.70;;;9.80;1.00;;;;;;4920241;29;20453;-83
2023/04/14 00:10:07;;;;;;;14.97;10.60;;;9.80;1.00;;;;;;4919724;29;20530;-83
2023/04/14 00:12:34;;;;;;;18.83;11.67;;;9.80;1.00;;;;;;4911220;29;20459;-83
2023/04/14 00:15:03;;;;;;;12.93;10.93;;;9.90;1.00;;;;;;4900296;29;20436;-83
2023/04/14 00:17:31;;;;;;;11.93;10.73;;;9.90;1.00;;;;;;4918270;29;20467;-83
2023/04/14 00:19:58;;;;;;;10.60;9.50;;;9.90;1.00;;;;;;4920798;29;20487;-83
2023/04/14 00:22:25;;;;;;;11.67;10.50;;;9.90;1.00;;;;;;4915923;29;21051;-83
2023/04/14 00:24:52;;;;;;;10.30;9.30;;;9.90;1.00;;;;;;4918873;29;20468;-83
2023/04/14 00:27:19;;;;;;;12.63;9.70;;;9.80;1.00;;;;;;4913905;28;21104;-83
2023/04/14 00:29:46;;;;;;;13.23;11.33;;;9.80;1.00;;;;;;4912894;29;20463;-83
2023/04/14 00:32:15;;;;;;;11.00;9.97;;;9.80;1.00;;;;;;4916452;29;20455;-83
2023/04/14 00:34:42;;;;;;;11.53;9.43;;;9.80;1.00;;;;;;4915922;29;20798;-83
2023/04/14 00:37:09;;;;;;;10.17;9.17;;;9.90;1.00;;;;;;4921935;29;20486;-83
2023/04/14 00:39:36;;;;;;;10.77;9.77;;;9.90;1.00;;;;;;4919207;29;20475;-83
2023/04/14 00:42:04;;;;;;;10.77;9.67;;;10.00;1.00;;;;;;4925085;29;20450;-83
2023/04/14 00:44:31;;;;;;;10.80;9.80;;;9.90;1.00;;;;;;4920984;29;20446;-84
2023/04/14 00:46:59;;;;;;;10.43;9.43;;;9.90;1.00;;;;;;4919529;29;21371;-83
2023/04/14 00:49:30;;;;;;;10.27;9.00;;;10.00;1.00;;;;;;4922848;29;20484;-83
2023/04/14 00:51:57;;;;;;;10.20;9.10;;;10.00;1.00;;;;;;4924217;29;20526;-83
2023/04/14 00:54:25;;;;;;;10.33;9.37;;;10.00;1.00;;;;;;4916223;29;20470;-83
2023/04/14 00:56:53;;;;;;;10.50;9.20;;;10.00;1.00;;;;;;4922190;29;21031;-82
2023/04/14 00:59:21;;;;;;;9.63;8.63;;;9.90;1.00;;;;;;4925506;29;20455;-82
2023/04/14 01:01:47;;;;;;;9.40;8.47;;;9.90;1.00;;;;;;4919910;29;20550;-84
2023/04/14 03:45:48;;;;;;;12.80;8.43;;;9.60;1.00;;;;;;4898082;23;20513;-90
2023/04/14 03:48:18;;;;;;;9.70;8.57;;;9.60;1.00;;;;;;4889095;29;20467;-92
2023/04/14 03:50:48;;;;;;;11.57;8.60;;;9.70;1.00;;;;;;4893026;29;20417;-91
2023/04/14 03:53:20;;;;;;;10.70;8.43;;;9.70;1.00;;;;;;4889670;29;20563;-90
2023/04/14 03:55:50;;;;;;;13.10;7.83;;;9.70;1.00;;;;;;4884808;29;20584;-92
2023/04/14 03:58:18;;;;;;;7.80;6.97;;;9.70;1.00;;;;;;4887647;29;20492;-92
2023/04/14 04:01:01;;;;;;;7.93;7.13;;;9.80;1.00;;;;;;4879036;29;20464;-90
2023/04/14 04:06:17;;;;;;;10.40;8.10;;;9.90;1.00;;;;;;4879358;29;20453;-92
2023/04/14 04:08:46;;;;;;;8.00;7.20;;;10.00;1.00;;;;;;4887941;29;20453;-89
2023/04/14 04:11:33;;;;;;;8.30;7.50;;;10.10;1.00;;;;;;4871123;29;20550;-92
2023/04/14 04:14:07;;;;;;;9.03;7.47;;;10.20;1.00;;;;;;4839173;29;20459;-91
2023/04/14 04:16:39;;;;;;;8.27;7.30;;;10.20;1.00;;;;;;4880174;29;20456;-90
2023/04/14 04:22:14;;;;;;;10.73;8.73;;;10.20;1.00;;;;;;4881285;29;20432;-90
2023/04/14 04:24:47;;;;;;;11.77;8.40;;;10.20;1.00;;;;;;4891133;29;20457;-90
2023/04/14 04:27:37;;;;;;;7.07;6.47;;;10.10;1.00;;;;;;4891171;29;20432;-90
2023/04/14 04:30:09;;;;;;;8.13;7.30;;;10.10;1.00;;;;;;4883695;29;21405;-91
2023/04/14 04:32:40;;;;;;;7.80;6.37;;;10.10;1.00;;;;;;4889715;29;22631;-91
2023/04/14 04:35:27;;;;;;;6.33;5.73;;;10.00;1.00;;;;;;4894657;29;20421;-91
2023/04/14 04:38:26;;;;;;;8.87;7.97;;;10.10;1.00;;;;;;4863118;29;20471;-91
2023/04/14 04:40:56;;;;;;;14.70;6.93;;;10.10;1.00;;;;;;4866066;29;20498;-91
2023/04/14 04:50:02;;;;;;;8.13;6.90;;;10.20;1.00;;;;;;4850989;29;20513;-90
2023/04/14 04:52:36;;;;;;;8.03;7.20;;;10.20;1.00;;;;;;4875401;29;20461;-91
2023/04/14 04:58:24;;;;;;;;;;;;;;;;;;;;;
2023/04/14 05:01:32;;;;;;;10.73;9.60;;;10.20;1.00;;;;;;4862411;29;39631;-93
2023/04/14 05:07:09;;;;;;;8.23;6.80;;;10.30;1.00;;;;;;4889288;29;20433;-92
2023/04/14 05:09:36;;;;;;;9.40;6.10;;;10.30;1.00;;;;;;4896240;29;20478;-90
2023/04/14 05:15:18;;;;;;;6.67;5.60;;;10.30;1.00;;;;;;4861149;29;20985;-91
2023/04/14 05:24:51;;;;;;;6.00;5.40;;;10.40;1.00;;;;;;4880897;29;21395;-91
2023/04/14 05:40:25;;;;;;;12.03;6.67;;;10.60;1.00;;;;;;5397583;23;20442;-92
2023/04/14 05:42:53;;;;;;;17.23;7.57;;;10.60;1.00;;;;;;4907811;29;20468;-88
2023/04/14 05:45:23;;;;;;;9.67;7.23;;;10.60;1.00;;;;;;4916417;29;20482;-86
2023/04/14 05:48:16;;;;;;;9.03;6.30;;;10.60;1.00;;;;;;4906859;29;20458;-89
2023/04/14 05:50:53;;;;;;;6.00;5.40;;;10.60;1.00;;;;;;4889684;29;20493;-87
2023/04/14 05:53:22;;;;;;;10.27;6.27;;;10.50;1.00;;;;;;4921547;29;20479;-86
2023/04/14 05:56:08;;;;;;;6.60;5.97;;;10.40;1.00;;;;;;4908078;29;20474;-89
2023/04/14 05:58:39;;;;;;;9.43;7.33;;;10.50;1.00;;;;;;4935726;28;20523;-87
2023/04/14 06:01:14;;;;;;;7.83;7.03;;;10.50;1.00;;;;;;4915237;28;20488;-85
2023/04/14 06:03:41;;;;;;;5.47;4.97;;;10.50;1.00;;;;;;4909210;28;20459;-86
2023/04/14 06:06:08;;;;;;;6.27;5.73;;;10.50;1.00;;;;;;4936073;29;20505;-86
2023/04/14 06:08:36;;;;;;;8.97;6.40;;;10.60;1.00;;;;;;4930734;28;20450;-87
2023/04/14 06:11:10;;;;;;;6.93;5.80;;;10.50;1.00;;;;;;4934817;28;20427;-85
2023/04/14 06:13:37;;;;;;;6.77;6.07;;;10.50;1.00;;;;;;4925824;28;20463;-81
2023/04/14 06:16:04;;;;;;;7.07;6.37;;;10.50;1.00;;;;;;4938075;28;20470;-84
2023/04/14 06:18:34;;;;;;;7.67;6.50;;;10.50;1.00;;;;;;4931131;28;20893;-78
2023/04/14 06:21:02;;;;;;;6.77;6.17;;;10.50;1.00;;;;;;4919265;28;20561;-78
2023/04/14 06:23:30;;;;;;;6.80;6.30;;;10.60;1.00;;;;;;4929376;28;20603;-80
2023/04/14 06:25:58;;;;;;;7.90;7.30;;;10.60;1.00;;;;;;4927663;28;20560;-79
2023/04/14 06:28:26;;;;;;;7.17;6.60;;;10.50;1.00;;;;;;4928907;28;20470;-79
2023/04/14 06:30:53;;;;;;;13.93;6.70;;;10.50;1.00;;;;;;4921053;28;20451;-78
2023/04/14 06:33:20;;;;;;;8.10;7.30;;;10.50;1.00;;;;;;4925831;28;20465;-79
2023/04/14 06:35:48;;;;;;;9.67;6.93;;;10.50;1.00;;;;;;4930614;28;20483;-80
2023/04/14 06:38:15;;;;;;;11.80;7.90;;;10.50;1.00;;;;;;4934013;28;21083;-80
2023/04/14 06:40:44;;;;;;;8.30;7.53;;;10.40;1.00;;;;;;4930795;28;20504;-80
2023/04/14 06:43:16;;;;;;;8.80;8.03;;;10.50;1.00;;;;;;4945988;28;20455;-80
2023/04/14 06:45:45;;;;;;;9.10;8.20;;;10.50;1.00;;;;;;4946168;28;20482;-79
2023/04/14 06:48:12;;;;;;;8.40;7.60;;;10.60;1.00;;;;;;4955277;28;20456;-80
2023/04/14 06:50:39;;;;;;;8.67;7.83;;;10.60;1.00;;;;;;4952692;28;20549;-78
2023/04/14 06:53:08;;;;;;;15.17;10.17;;;10.60;1.00;;;;;;4951260;28;20430;-80
2023/04/14 06:55:36;;;;;;;9.90;9.00;;;10.60;1.00;;;;;;4941249;28;20487;-79
2023/04/14 06:58:06;;;;;;;13.97;10.63;;;10.60;1.00;;;;;;4950666;28;20495;-80
2023/04/14 07:00:33;;;;;;;11.43;9.93;;;10.60;1.00;;;;;;4947713;28;20456;-78
2023/04/14 07:03:11;;;;;;;11.97;10.77;;;10.60;1.00;;;;;;4957358;28;20434;-79
2023/04/14 07:06:08;;;;;;;11.07;9.97;;;10.70;1.00;;;;;;4928794;28;20511;-81
2023/04/14 07:09:22;;;;;;;12.20;10.23;;;10.70;1.00;;;;;;4937683;28;20481;-82
2023/04/14 07:18:02;;;;;;;9.97;9.00;;;10.80;1.00;;;;;;4869729;29;20468;-80
2023/04/14 07:20:30;;;;;;;13.73;10.30;;;10.90;1.00;;;;;;4948464;28;20487;-81
2023/04/14 07:22:58;;;;;;;10.57;9.67;;;10.80;1.00;;;;;;4951404;28;20430;-79
2023/04/14 07:25:26;;;;;;;11.40;10.40;;;10.80;1.00;;;;;;4948178;28;20513;-81
2023/04/14 07:27:53;;;;;;;11.03;9.93;;;10.70;1.00;;;;;;4953107;28;20523;-80
2023/04/14 07:30:30;;;;;;;12.00;10.80;;;10.80;1.00;;;;;;4954296;28;20510;-81
